Accueil
METAR-TAF:

METAR-TAF

Aéroports :

Armilla

Grenade, Espagne

latitude: 37-08N, longitude: 003-38-08W, altitude: 700 m

Observation

Le bulletin a été fait il y a 5 heures et 48 minutes, à 13:00 UTC
Vent 6 kt de direction variable
Température 30°C
Humidité 29%
Pression 1020 hPa
Visibilité 10 km ou plus
pas de nuages en-dessous de 1500 mètres et pas de cumulonimbus.

METAR: LEGA 241300Z VRB06KT CAVOK 30/10 Q1020

Heure: 20:48 (18:48 UTC)

Prévision

Le bulletin a été fait il y a 1 heure et 48 minutes, à 17:00 UTC
Prévision valable du 24 à 18 UTC au 25 à 18 UTC
Vent 12 kt de sud
Visibilité 10 km ou plus
pas de nuages en-dessous de 1500 mètres et pas de cumulonimbus.
Evoluant progressivement
du 24 à 21 UTC au 24 à 23 UTC
Vent 3 kt de direction variable
Evoluant progressivement
du 25 à 12 UTC au 25 à 14 UTC
Vent 12 kt de sud

TAF: LEGA 241700Z 2418/2518 18012KT CAVOK TX33/2515Z TN16/2505Z BECMG 2421/2423 VRB03KT BECMG 2512/2514 18012KT

Observations et prévisions météorologiques de plus de 4000 aéroports (messages METAR et TAF).

Les stations disponibles sont représentées par des disques jaunes et rouges sur la carte.

Passer la souris dessus pour voir le nom de la station.

Cliquer dessus pour voir les observations et prévisions météorologiques.

Pour changer de carte: cliquez sur les boutons verts avec une croix noire pour zoomer, sur le bouton vert avec un tiret pour effectuer un zoom arrière, ou sur les flèches vertes pour les cartes adjacentes.


METAR-TAF: